KLBL/LBL METAR and TAF weather

Enter ICAO airport designator
Station Type Date Time Source
KLBL METAR 2020/09/21 09:56 UTC NOAA

KLBL 210956Z AUTO 18008KT 10SM CLR 12/09 A3017 RMK AO2 SLP193 T01170089


Station Type Date Time Source
KLBL Decoded METAR 2020/09/21 09:56 UTC NOAA

Liberal, Liberal Municipal Airport, KS, United States (KLBL) 37-03N 100-58W
Sep 21, 2020 - 05:56 AM EDT / 2020.09.21 0956 UTC
Wind: from the S (180 degrees) at 9 MPH (8 KT):0
Visibility: 10 mile(s):0
Sky conditions: clear
Temperature: 53.1 F (11.7 C)
Dew Point: 48.0 F (8.9 C)
Relative Humidity: 82%
Pressure (altimeter): 30.17 in. Hg (1021 hPa)
ob: KLBL 210956Z AUTO 18008KT 10SM CLR 12/09 A3017 RMK AO2 SLP193 T01170089
cycle: 10

Station Type Date Time Source
KLBL TAF 2020/09/21 06:21 UTC NOAA

TAF KLBL 210520Z 2106/2206 16012KT P6SM SKC
FM211500 19015G23KT P6SM SKC
FM220000 15013KT P6SM SKC

Example: see airport list